sensor_id;sensor_type;location;lat;lon;timestamp;temperature;humidity
23347;DHT22;36852;45.466;11.066;2022-12-20T00:01:40;7.20;99.90
23347;DHT22;36852;45.466;11.066;2022-12-20T00:04:09;7.20;99.90
23347;DHT22;36852;45.466;11.066;2022-12-20T00:06:39;7.20;99.90
23347;DHT22;36852;45.466;11.066;2022-12-20T00:09:08;7.20;99.90
23347;DHT22;36852;45.466;11.066;2022-12-20T00:11:39;7.10;99.90
23347;DHT22;36852;45.466;11.066;2022-12-20T00:14:08;7.10;99.90
23347;DHT22;36852;45.466;11.066;2022-12-20T00:16:37;7.10;99.90
23347;DHT22;36852;45.466;11.066;2022-12-20T00:19:06;7.10;99.90
23347;DHT22;36852;45.466;11.066;2022-12-20T00:21:34;7.10;99.90
23347;DHT22;36852;45.466;11.066;2022-12-20T00:24:05;7.10;99.90
23347;DHT22;36852;45.466;11.066;2022-12-20T00:26:34;7.10;99.90
23347;DHT22;36852;45.466;11.066;2022-12-20T00:29:03;7.10;99.90
23347;DHT22;36852;45.466;11.066;2022-12-20T00:31:31;7.10;99.90
23347;DHT22;36852;45.466;11.066;2022-12-20T00:34:00;7.10;99.90
23347;DHT22;36852;45.466;11.066;2022-12-20T00:36:29;7.20;99.90
23347;DHT22;36852;45.466;11.066;2022-12-20T00:38:58;7.20;99.90
23347;DHT22;36852;45.466;11.066;2022-12-20T00:41:29;7.20;99.90
23347;DHT22;36852;45.466;11.066;2022-12-20T00:46:48;7.20;99.90
23347;DHT22;36852;45.466;11.066;2022-12-20T00:49:17;7.20;99.90
23347;DHT22;36852;45.466;11.066;2022-12-20T00:51:44;7.10;99.90
23347;DHT22;36852;45.466;11.066;2022-12-20T00:54:12;7.10;99.90
23347;DHT22;36852;45.466;11.066;2022-12-20T00:56:40;7.10;99.90
23347;DHT22;36852;45.466;11.066;2022-12-20T00:59:08;7.10;99.90
23347;DHT22;36852;45.466;11.066;2022-12-20T01:01:36;7.10;99.90
23347;DHT22;36852;45.466;11.066;2022-12-20T01:06:45;7.10;99.90
23347;DHT22;36852;45.466;11.066;2022-12-20T01:09:13;7.10;99.90
23347;DHT22;36852;45.466;11.066;2022-12-20T01:11:41;7.10;99.90
23347;DHT22;36852;45.466;11.066;2022-12-20T01:14:12;7.10;99.90
23347;DHT22;36852;45.466;11.066;2022-12-20T01:16:43;7.00;99.90
23347;DHT22;36852;45.466;11.066;2022-12-20T01:19:15;7.10;99.90
23347;DHT22;36852;45.466;11.066;2022-12-20T01:21:43;7.00;99.90
23347;DHT22;36852;45.466;11.066;2022-12-20T01:24:14;7.00;99.90
23347;DHT22;36852;45.466;11.066;2022-12-20T01:26:44;7.10;99.90
23347;DHT22;36852;45.466;11.066;2022-12-20T01:29:12;7.10;99.90
23347;DHT22;36852;45.466;11.066;2022-12-20T01:31:41;7.10;99.90
23347;DHT22;36852;45.466;11.066;2022-12-20T01:34:16;7.10;99.90
23347;DHT22;36852;45.466;11.066;2022-12-20T01:36:44;7.10;99.90
23347;DHT22;36852;45.466;11.066;2022-12-20T01:39:14;7.10;99.90
23347;DHT22;36852;45.466;11.066;2022-12-20T01:41:44;7.10;99.90
23347;DHT22;36852;45.466;11.066;2022-12-20T01:46:53;7.20;99.90
23347;DHT22;36852;45.466;11.066;2022-12-20T01:51:57;7.20;99.90
23347;DHT22;36852;45.466;11.066;2022-12-20T01:54:29;7.20;99.90
23347;DHT22;36852;45.466;11.066;2022-12-20T01:57:08;7.20;99.90
23347;DHT22;36852;45.466;11.066;2022-12-20T01:59:40;7.20;99.90
23347;DHT22;36852;45.466;11.066;2022-12-20T02:02:10;7.20;99.90
23347;DHT22;36852;45.466;11.066;2022-12-20T02:07:26;7.20;99.90
23347;DHT22;36852;45.466;11.066;2022-12-20T02:09:56;7.20;99.90
23347;DHT22;36852;45.466;11.066;2022-12-20T02:12:39;7.10;99.90
23347;DHT22;36852;45.466;11.066;2022-12-20T02:20:58;7.10;99.90
23347;DHT22;36852;45.466;11.066;2022-12-20T02:29:24;7.10;99.90
23347;DHT22;36852;45.466;11.066;2022-12-20T02:34:31;7.10;99.90
23347;DHT22;36852;45.466;11.066;2022-12-20T02:36:59;7.10;99.90
23347;DHT22;36852;45.466;11.066;2022-12-20T02:39:32;7.10;99.90
23347;DHT22;36852;45.466;11.066;2022-12-20T02:42:06;7.10;99.90
23347;DHT22;36852;45.466;11.066;2022-12-20T02:44:34;7.20;99.90
23347;DHT22;36852;45.466;11.066;2022-12-20T02:47:25;7.20;99.90
23347;DHT22;36852;45.466;11.066;2022-12-20T02:49:54;7.20;99.90
23347;DHT22;36852;45.466;11.066;2022-12-20T02:52:24;7.20;99.90
23347;DHT22;36852;45.466;11.066;2022-12-20T02:54:54;7.10;99.90
23347;DHT22;36852;45.466;11.066;2022-12-20T03:00:10;7.20;99.90
23347;DHT22;36852;45.466;11.066;2022-12-20T03:02:40;7.20;99.90
23347;DHT22;36852;45.466;11.066;2022-12-20T03:05:27;7.20;99.90
23347;DHT22;36852;45.466;11.066;2022-12-20T03:07:58;7.20;99.90
23347;DHT22;36852;45.466;11.066;2022-12-20T03:10:26;7.20;99.90
23347;DHT22;36852;45.466;11.066;2022-12-20T03:12:54;7.20;99.90
23347;DHT22;36852;45.466;11.066;2022-12-20T03:15:42;7.20;99.90
23347;DHT22;36852;45.466;11.066;2022-12-20T03:18:11;7.20;99.90
23347;DHT22;36852;45.466;11.066;2022-12-20T03:20:40;7.20;99.90
23347;DHT22;36852;45.466;11.066;2022-12-20T03:23:08;7.20;99.90
23347;DHT22;36852;45.466;11.066;2022-12-20T03:25:36;7.20;99.90
23347;DHT22;36852;45.466;11.066;2022-12-20T03:28:04;7.20;99.90
23347;DHT22;36852;45.466;11.066;2022-12-20T03:30:36;7.20;99.90
23347;DHT22;36852;45.466;11.066;2022-12-20T03:33:04;7.30;99.90
23347;DHT22;36852;45.466;11.066;2022-12-20T03:35:35;7.30;99.90
23347;DHT22;36852;45.466;11.066;2022-12-20T03:40:51;7.30;99.90
23347;DHT22;36852;45.466;11.066;2022-12-20T03:43:20;7.30;99.90
23347;DHT22;36852;45.466;11.066;2022-12-20T03:45:48;7.30;99.90
23347;DHT22;36852;45.466;11.066;2022-12-20T03:48:17;7.30;99.90
23347;DHT22;36852;45.466;11.066;2022-12-20T03:50:46;7.30;99.90
23347;DHT22;36852;45.466;11.066;2022-12-20T03:55:56;7.30;99.90
23347;DHT22;36852;45.466;11.066;2022-12-20T03:58:25;7.30;99.90
23347;DHT22;36852;45.466;11.066;2022-12-20T04:00:55;7.20;99.90
23347;DHT22;36852;45.466;11.066;2022-12-20T04:03:31;7.20;99.90
23347;DHT22;36852;45.466;11.066;2022-12-20T04:08:41;7.20;99.90
23347;DHT22;36852;45.466;11.066;2022-12-20T04:11:09;7.20;99.90
23347;DHT22;36852;45.466;11.066;2022-12-20T04:13:47;7.20;99.90
23347;DHT22;36852;45.466;11.066;2022-12-20T04:16:17;7.20;99.90
23347;DHT22;36852;45.466;11.066;2022-12-20T04:18:46;7.20;99.90
23347;DHT22;36852;45.466;11.066;2022-12-20T04:21:15;7.20;99.90
23347;DHT22;36852;45.466;11.066;2022-12-20T04:23:45;7.20;99.90
23347;DHT22;36852;45.466;11.066;2022-12-20T04:26:16;7.30;99.90
23347;DHT22;36852;45.466;11.066;2022-12-20T04:28:44;7.30;99.90
23347;DHT22;36852;45.466;11.066;2022-12-20T04:31:12;7.20;99.90
23347;DHT22;36852;45.466;11.066;2022-12-20T04:33:42;7.30;99.90
23347;DHT22;36852;45.466;11.066;2022-12-20T04:36:11;7.30;99.90
23347;DHT22;36852;45.466;11.066;2022-12-20T04:38:39;7.30;99.90
23347;DHT22;36852;45.466;11.066;2022-12-20T04:41:08;7.30;99.90
23347;DHT22;36852;45.466;11.066;2022-12-20T04:43:38;7.30;99.90
23347;DHT22;36852;45.466;11.066;2022-12-20T04:46:07;7.30;99.90
23347;DHT22;36852;45.466;11.066;2022-12-20T04:48:35;7.30;99.90
23347;DHT22;36852;45.466;11.066;2022-12-20T04:53:54;7.20;99.90
23347;DHT22;36852;45.466;11.066;2022-12-20T04:56:27;7.20;99.90
23347;DHT22;36852;45.466;11.066;2022-12-20T04:59:03;7.20;99.90
23347;DHT22;36852;45.466;11.066;2022-12-20T05:01:31;7.20;99.90
23347;DHT22;36852;45.466;11.066;2022-12-20T05:04:03;7.20;99.90
23347;DHT22;36852;45.466;11.066;2022-12-20T05:06:36;7.30;99.90
23347;DHT22;36852;45.466;11.066;2022-12-20T05:09:05;7.30;99.90
23347;DHT22;36852;45.466;11.066;2022-12-20T05:11:33;7.30;99.90
23347;DHT22;36852;45.466;11.066;2022-12-20T05:14:04;7.30;99.90
23347;DHT22;36852;45.466;11.066;2022-12-20T05:16:32;7.30;99.90
23347;DHT22;36852;45.466;11.066;2022-12-20T05:19:01;7.30;99.90
23347;DHT22;36852;45.466;11.066;2022-12-20T05:21:32;7.30;99.90
23347;DHT22;36852;45.466;11.066;2022-12-20T05:24:18;7.30;99.90
23347;DHT22;36852;45.466;11.066;2022-12-20T05:27:12;7.30;99.90
23347;DHT22;36852;45.466;11.066;2022-12-20T05:29:40;7.30;99.90
23347;DHT22;36852;45.466;11.066;2022-12-20T05:32:08;7.30;99.90
23347;DHT22;36852;45.466;11.066;2022-12-20T05:34:39;7.30;99.90
23347;DHT22;36852;45.466;11.066;2022-12-20T05:37:06;7.30;99.90
23347;DHT22;36852;45.466;11.066;2022-12-20T05:39:35;7.30;99.90
23347;DHT22;36852;45.466;11.066;2022-12-20T05:42:05;7.30;99.90
23347;DHT22;36852;45.466;11.066;2022-12-20T05:44:33;7.30;99.90
23347;DHT22;36852;45.466;11.066;2022-12-20T05:47:01;7.30;99.90
23347;DHT22;36852;45.466;11.066;2022-12-20T05:49:30;7.30;99.90
23347;DHT22;36852;45.466;11.066;2022-12-20T05:52:00;7.30;99.90
23347;DHT22;36852;45.466;11.066;2022-12-20T05:54:29;7.40;99.90
23347;DHT22;36852;45.466;11.066;2022-12-20T05:57:04;7.30;99.90
23347;DHT22;36852;45.466;11.066;2022-12-20T05:59:38;7.40;99.90
23347;DHT22;36852;45.466;11.066;2022-12-20T06:02:07;7.40;99.90
23347;DHT22;36852;45.466;11.066;2022-12-20T06:04:37;7.30;99.90
23347;DHT22;36852;45.466;11.066;2022-12-20T06:07:07;7.40;99.90
23347;DHT22;36852;45.466;11.066;2022-12-20T06:09:35;7.40;99.90
23347;DHT22;36852;45.466;11.066;2022-12-20T06:12:05;7.40;99.90
23347;DHT22;36852;45.466;11.066;2022-12-20T06:14:34;7.30;99.90
23347;DHT22;36852;45.466;11.066;2022-12-20T06:17:02;7.40;99.90
23347;DHT22;36852;45.466;11.066;2022-12-20T06:19:30;7.40;99.90
23347;DHT22;36852;45.466;11.066;2022-12-20T06:21:58;7.40;99.90
23347;DHT22;36852;45.466;11.066;2022-12-20T06:24:32;7.40;99.90
23347;DHT22;36852;45.466;11.066;2022-12-20T06:27:03;7.40;99.90
23347;DHT22;36852;45.466;11.066;2022-12-20T06:29:30;7.40;99.90
23347;DHT22;36852;45.466;11.066;2022-12-20T06:32:00;7.40;99.90
23347;DHT22;36852;45.466;11.066;2022-12-20T06:34:28;7.30;99.90
23347;DHT22;36852;45.466;11.066;2022-12-20T06:36:55;7.30;99.90
23347;DHT22;36852;45.466;11.066;2022-12-20T06:39:25;7.20;99.90
23347;DHT22;36852;45.466;11.066;2022-12-20T06:41:57;7.20;99.90
23347;DHT22;36852;45.466;11.066;2022-12-20T06:44:25;7.20;99.90
23347;DHT22;36852;45.466;11.066;2022-12-20T06:46:53;7.20;99.90
23347;DHT22;36852;45.466;11.066;2022-12-20T06:49:21;7.20;99.90
23347;DHT22;36852;45.466;11.066;2022-12-20T06:51:49;7.20;99.90
23347;DHT22;36852;45.466;11.066;2022-12-20T06:54:21;7.30;99.90
23347;DHT22;36852;45.466;11.066;2022-12-20T06:56:50;7.30;99.90
23347;DHT22;36852;45.466;11.066;2022-12-20T06:59:18;7.30;99.90
23347;DHT22;36852;45.466;11.066;2022-12-20T07:01:46;7.30;99.90
23347;DHT22;36852;45.466;11.066;2022-12-20T07:04:15;7.40;99.90
23347;DHT22;36852;45.466;11.066;2022-12-20T07:06:43;7.40;99.90
23347;DHT22;36852;45.466;11.066;2022-12-20T07:09:12;7.40;99.90
23347;DHT22;36852;45.466;11.066;2022-12-20T07:11:40;7.40;99.90
23347;DHT22;36852;45.466;11.066;2022-12-20T07:14:09;7.40;99.90
23347;DHT22;36852;45.466;11.066;2022-12-20T07:16:37;7.40;99.90
23347;DHT22;36852;45.466;11.066;2022-12-20T07:19:10;7.40;99.90
23347;DHT22;36852;45.466;11.066;2022-12-20T07:21:38;7.40;99.90
23347;DHT22;36852;45.466;11.066;2022-12-20T07:24:09;7.40;99.90
23347;DHT22;36852;45.466;11.066;2022-12-20T07:26:38;7.40;99.90
23347;DHT22;36852;45.466;11.066;2022-12-20T07:29:06;7.40;99.90
23347;DHT22;36852;45.466;11.066;2022-12-20T07:31:36;7.40;99.90
23347;DHT22;36852;45.466;11.066;2022-12-20T07:34:04;7.40;99.90
23347;DHT22;36852;45.466;11.066;2022-12-20T07:36:32;7.40;99.90
23347;DHT22;36852;45.466;11.066;2022-12-20T07:39:00;7.40;99.90
23347;DHT22;36852;45.466;11.066;2022-12-20T07:41:29;7.40;99.90
23347;DHT22;36852;45.466;11.066;2022-12-20T07:44:01;7.40;99.90
23347;DHT22;36852;45.466;11.066;2022-12-20T07:46:29;7.50;99.90
23347;DHT22;36852;45.466;11.066;2022-12-20T07:48:57;7.50;99.90
23347;DHT22;36852;45.466;11.066;2022-12-20T07:51:33;7.50;99.90
23347;DHT22;36852;45.466;11.066;2022-12-20T07:54:02;7.50;99.90
23347;DHT22;36852;45.466;11.066;2022-12-20T07:56:30;7.50;99.90
23347;DHT22;36852;45.466;11.066;2022-12-20T07:59:09;7.60;99.90
23347;DHT22;36852;45.466;11.066;2022-12-20T08:01:38;7.60;99.90
23347;DHT22;36852;45.466;11.066;2022-12-20T08:04:17;7.60;99.90
23347;DHT22;36852;45.466;11.066;2022-12-20T08:06:46;7.60;99.90
23347;DHT22;36852;45.466;11.066;2022-12-20T08:12:03;7.50;99.90
23347;DHT22;36852;45.466;11.066;2022-12-20T08:14:32;7.50;99.90
23347;DHT22;36852;45.466;11.066;2022-12-20T08:17:01;7.40;99.90
23347;DHT22;36852;45.466;11.066;2022-12-20T08:19:30;7.40;99.90
23347;DHT22;36852;45.466;11.066;2022-12-20T08:21:59;7.40;99.90
23347;DHT22;36852;45.466;11.066;2022-12-20T08:24:26;7.50;99.90
23347;DHT22;36852;45.466;11.066;2022-12-20T08:26:54;7.40;99.90
23347;DHT22;36852;45.466;11.066;2022-12-20T08:29:22;7.40;99.90
23347;DHT22;36852;45.466;11.066;2022-12-20T08:31:50;7.40;99.90
23347;DHT22;36852;45.466;11.066;2022-12-20T08:34:18;7.50;99.90
23347;DHT22;36852;45.466;11.066;2022-12-20T08:36:47;7.50;99.90
23347;DHT22;36852;45.466;11.066;2022-12-20T08:39:15;7.40;99.90
23347;DHT22;36852;45.466;11.066;2022-12-20T08:41:43;7.50;99.90
23347;DHT22;36852;45.466;11.066;2022-12-20T08:44:12;7.50;99.90
23347;DHT22;36852;45.466;11.066;2022-12-20T08:46:40;7.50;99.90
23347;DHT22;36852;45.466;11.066;2022-12-20T08:49:08;7.50;99.90
23347;DHT22;36852;45.466;11.066;2022-12-20T08:51:36;7.50;99.90
23347;DHT22;36852;45.466;11.066;2022-12-20T08:54:04;7.60;99.90
23347;DHT22;36852;45.466;11.066;2022-12-20T08:56:33;7.60;99.90
23347;DHT22;36852;45.466;11.066;2022-12-20T08:59:01;7.60;99.90
23347;DHT22;36852;45.466;11.066;2022-12-20T09:01:29;7.60;99.90
23347;DHT22;36852;45.466;11.066;2022-12-20T09:04:00;7.70;99.90
23347;DHT22;36852;45.466;11.066;2022-12-20T09:06:28;7.60;99.90
23347;DHT22;36852;45.466;11.066;2022-12-20T09:09:16;7.70;99.90
23347;DHT22;36852;45.466;11.066;2022-12-20T09:11:43;7.70;99.90
23347;DHT22;36852;45.466;11.066;2022-12-20T09:14:11;7.70;99.90
23347;DHT22;36852;45.466;11.066;2022-12-20T09:16:40;7.70;99.90
23347;DHT22;36852;45.466;11.066;2022-12-20T09:19:10;7.70;99.90
23347;DHT22;36852;45.466;11.066;2022-12-20T09:21:39;7.70;99.90
23347;DHT22;36852;45.466;11.066;2022-12-20T09:24:08;7.70;99.90
23347;DHT22;36852;45.466;11.066;2022-12-20T09:26:40;7.70;99.90
23347;DHT22;36852;45.466;11.066;2022-12-20T09:29:10;7.70;99.90
23347;DHT22;36852;45.466;11.066;2022-12-20T09:31:38;7.70;99.90
23347;DHT22;36852;45.466;11.066;2022-12-20T09:34:07;7.70;99.90
23347;DHT22;36852;45.466;11.066;2022-12-20T09:36:36;7.60;99.90
23347;DHT22;36852;45.466;11.066;2022-12-20T09:39:04;7.60;99.90
23347;DHT22;36852;45.466;11.066;2022-12-20T09:41:36;7.60;99.90
23347;DHT22;36852;45.466;11.066;2022-12-20T09:44:18;7.60;99.90
23347;DHT22;36852;45.466;11.066;2022-12-20T09:46:36;7.70;99.90
23347;DHT22;36852;45.466;11.066;2022-12-20T09:54:39;7.70;99.90
23347;DHT22;36852;45.466;11.066;2022-12-20T09:59:45;7.70;99.90
23347;DHT22;36852;45.466;11.066;2022-12-20T10:02:20;7.80;99.90
23347;DHT22;36852;45.466;11.066;2022-12-20T10:05:14;7.80;99.90
23347;DHT22;36852;45.466;11.066;2022-12-20T10:16:33;7.90;99.90
23347;DHT22;36852;45.466;11.066;2022-12-20T10:19:21;8.00;99.90
23347;DHT22;36852;45.466;11.066;2022-12-20T10:22:09;8.00;99.90
23347;DHT22;36852;45.466;11.066;2022-12-20T10:24:37;7.90;99.90
23347;DHT22;36852;45.466;11.066;2022-12-20T10:27:13;8.00;99.90
23347;DHT22;36852;45.466;11.066;2022-12-20T10:29:43;8.00;99.90
23347;DHT22;36852;45.466;11.066;2022-12-20T10:32:15;8.00;99.90
23347;DHT22;36852;45.466;11.066;2022-12-20T10:37:24;8.10;99.90
23347;DHT22;36852;45.466;11.066;2022-12-20T10:39:53;8.10;99.90
23347;DHT22;36852;45.466;11.066;2022-12-20T10:42:24;8.10;99.90
23347;DHT22;36852;45.466;11.066;2022-12-20T10:44:54;8.20;99.90
23347;DHT22;36852;45.466;11.066;2022-12-20T10:47:35;8.20;99.90
23347;DHT22;36852;45.466;11.066;2022-12-20T10:50:18;8.20;99.90
23347;DHT22;36852;45.466;11.066;2022-12-20T10:52:37;8.30;99.90
23347;DHT22;36852;45.466;11.066;2022-12-20T10:57:54;8.20;99.90
23347;DHT22;36852;45.466;11.066;2022-12-20T11:00:29;8.30;99.90
23347;DHT22;36852;45.466;11.066;2022-12-20T11:03:18;8.30;99.90
23347;DHT22;36852;45.466;11.066;2022-12-20T11:06:00;8.40;99.90
23347;DHT22;36852;45.466;11.066;2022-12-20T11:08:28;8.40;99.90
23347;DHT22;36852;45.466;11.066;2022-12-20T11:11:22;8.40;99.90
23347;DHT22;36852;45.466;11.066;2022-12-20T11:13:51;8.30;99.90
23347;DHT22;36852;45.466;11.066;2022-12-20T11:21:48;8.40;99.90
23347;DHT22;36852;45.466;11.066;2022-12-20T11:24:31;8.50;99.90
23347;DHT22;36852;45.466;11.066;2022-12-20T11:46:08;8.40;99.90
23347;DHT22;36852;45.466;11.066;2022-12-20T11:51:47;8.50;99.90
23347;DHT22;36852;45.466;11.066;2022-12-20T11:54:25;8.50;99.90
23347;DHT22;36852;45.466;11.066;2022-12-20T11:57:10;8.50;99.90
23347;DHT22;36852;45.466;11.066;2022-12-20T11:59:49;8.50;99.90
23347;DHT22;36852;45.466;11.066;2022-12-20T12:02:18;8.50;99.90
23347;DHT22;36852;45.466;11.066;2022-12-20T12:04:49;8.60;99.90
23347;DHT22;36852;45.466;11.066;2022-12-20T12:07:22;8.50;99.90
23347;DHT22;36852;45.466;11.066;2022-12-20T12:12:39;8.50;99.90
23347;DHT22;36852;45.466;11.066;2022-12-20T12:17:47;8.60;99.90
23347;DHT22;36852;45.466;11.066;2022-12-20T12:25:32;8.60;99.90
23347;DHT22;36852;45.466;11.066;2022-12-20T12:28:01;8.60;99.90
23347;DHT22;36852;45.466;11.066;2022-12-20T12:30:36;8.60;99.90
23347;DHT22;36852;45.466;11.066;2022-12-20T12:33:17;8.70;99.90
23347;DHT22;36852;45.466;11.066;2022-12-20T12:44:26;8.70;99.90
23347;DHT22;36852;45.466;11.066;2022-12-20T12:47:00;8.70;99.90
23347;DHT22;36852;45.466;11.066;2022-12-20T12:49:33;8.80;99.90
23347;DHT22;36852;45.466;11.066;2022-12-20T12:52:02;8.80;99.90
23347;DHT22;36852;45.466;11.066;2022-12-20T12:54:44;8.80;99.90
23347;DHT22;36852;45.466;11.066;2022-12-20T12:57:14;8.80;99.90
23347;DHT22;36852;45.466;11.066;2022-12-20T12:59:48;8.80;99.90
23347;DHT22;36852;45.466;11.066;2022-12-20T13:02:22;8.80;99.90
23347;DHT22;36852;45.466;11.066;2022-12-20T13:12:57;8.90;99.90
23347;DHT22;36852;45.466;11.066;2022-12-20T13:18:00;8.80;99.90
23347;DHT22;36852;45.466;11.066;2022-12-20T13:20:32;8.70;99.90
23347;DHT22;36852;45.466;11.066;2022-12-20T13:25:46;8.80;99.90
23347;DHT22;36852;45.466;11.066;2022-12-20T13:33:45;8.80;99.90
23347;DHT22;36852;45.466;11.066;2022-12-20T13:36:32;8.80;99.90
23347;DHT22;36852;45.466;11.066;2022-12-20T13:39:11;8.80;99.90
23347;DHT22;36852;45.466;11.066;2022-12-20T13:41:38;8.80;99.90
23347;DHT22;36852;45.466;11.066;2022-12-20T13:49:25;8.80;99.90
23347;DHT22;36852;45.466;11.066;2022-12-20T13:52:26;8.70;99.90
23347;DHT22;36852;45.466;11.066;2022-12-20T13:54:51;8.70;99.90
23347;DHT22;36852;45.466;11.066;2022-12-20T13:57:26;8.60;99.90
23347;DHT22;36852;45.466;11.066;2022-12-20T13:59:56;8.60;99.90
23347;DHT22;36852;45.466;11.066;2022-12-20T14:02:31;8.50;99.90
23347;DHT22;36852;45.466;11.066;2022-12-20T14:05:12;8.50;99.90
23347;DHT22;36852;45.466;11.066;2022-12-20T14:07:37;8.50;99.90
23347;DHT22;36852;45.466;11.066;2022-12-20T14:10:22;8.60;99.90
23347;DHT22;36852;45.466;11.066;2022-12-20T14:15:30;8.60;99.90
23347;DHT22;36852;45.466;11.066;2022-12-20T14:20:41;8.60;99.90
23347;DHT22;36852;45.466;11.066;2022-12-20T14:23:12;8.60;99.90
23347;DHT22;36852;45.466;11.066;2022-12-20T14:28:47;8.60;99.90
23347;DHT22;36852;45.466;11.066;2022-12-20T14:34:24;8.60;99.90
23347;DHT22;36852;45.466;11.066;2022-12-20T14:37:24;8.60;99.90
23347;DHT22;36852;45.466;11.066;2022-12-20T14:39:55;8.60;99.90
23347;DHT22;36852;45.466;11.066;2022-12-20T14:42:27;8.60;99.90
23347;DHT22;36852;45.466;11.066;2022-12-20T14:50:32;8.70;99.90
23347;DHT22;36852;45.466;11.066;2022-12-20T14:52:58;8.60;99.90
23347;DHT22;36852;45.466;11.066;2022-12-20T14:55:37;8.60;99.90
23347;DHT22;36852;45.466;11.066;2022-12-20T15:01:01;8.60;99.90
23347;DHT22;36852;45.466;11.066;2022-12-20T15:03:29;8.70;99.90
23347;DHT22;36852;45.466;11.066;2022-12-20T15:05:58;8.60;99.90
23347;DHT22;36852;45.466;11.066;2022-12-20T15:08:31;8.60;99.90
23347;DHT22;36852;45.466;11.066;2022-12-20T15:13:40;8.60;99.90
23347;DHT22;36852;45.466;11.066;2022-12-20T15:16:21;8.70;99.90
23347;DHT22;36852;45.466;11.066;2022-12-20T15:18:52;8.60;99.90
23347;DHT22;36852;45.466;11.066;2022-12-20T15:21:32;8.60;99.90
23347;DHT22;36852;45.466;11.066;2022-12-20T15:24:02;8.60;99.90
23347;DHT22;36852;45.466;11.066;2022-12-20T15:26:32;8.60;99.90
23347;DHT22;36852;45.466;11.066;2022-12-20T15:29:00;8.60;99.90
23347;DHT22;36852;45.466;11.066;2022-12-20T15:31:29;8.60;99.90
23347;DHT22;36852;45.466;11.066;2022-12-20T15:34:02;8.50;99.90
23347;DHT22;36852;45.466;11.066;2022-12-20T15:39:19;8.50;99.90
23347;DHT22;36852;45.466;11.066;2022-12-20T15:41:48;8.50;99.90
23347;DHT22;36852;45.466;11.066;2022-12-20T15:44:19;8.40;99.90
23347;DHT22;36852;45.466;11.066;2022-12-20T15:46:48;8.40;99.90
23347;DHT22;36852;45.466;11.066;2022-12-20T15:49:18;8.40;99.90
23347;DHT22;36852;45.466;11.066;2022-12-20T15:51:49;8.40;99.90
23347;DHT22;36852;45.466;11.066;2022-12-20T15:57:02;8.40;99.90
23347;DHT22;36852;45.466;11.066;2022-12-20T15:59:31;8.40;99.90
23347;DHT22;36852;45.466;11.066;2022-12-20T16:04:43;8.40;99.90
23347;DHT22;36852;45.466;11.066;2022-12-20T16:07:11;8.40;99.90
23347;DHT22;36852;45.466;11.066;2022-12-20T16:09:39;8.50;99.90
23347;DHT22;36852;45.466;11.066;2022-12-20T16:12:16;8.50;99.90
23347;DHT22;36852;45.466;11.066;2022-12-20T16:14:45;8.50;99.90
23347;DHT22;36852;45.466;11.066;2022-12-20T16:17:14;8.40;99.90
23347;DHT22;36852;45.466;11.066;2022-12-20T16:19:42;8.40;99.90
23347;DHT22;36852;45.466;11.066;2022-12-20T16:22:32;8.40;99.90
23347;DHT22;36852;45.466;11.066;2022-12-20T16:25:00;8.40;99.90
23347;DHT22;36852;45.466;11.066;2022-12-20T16:27:29;8.40;99.90
23347;DHT22;36852;45.466;11.066;2022-12-20T16:29:57;8.40;99.90
23347;DHT22;36852;45.466;11.066;2022-12-20T16:32:24;8.30;99.90
23347;DHT22;36852;45.466;11.066;2022-12-20T16:34:53;8.30;99.90
23347;DHT22;36852;45.466;11.066;2022-12-20T16:37:22;8.30;99.90
23347;DHT22;36852;45.466;11.066;2022-12-20T16:39:50;8.30;99.90
23347;DHT22;36852;45.466;11.066;2022-12-20T16:42:18;8.40;99.90
23347;DHT22;36852;45.466;11.066;2022-12-20T16:44:50;8.40;99.90
23347;DHT22;36852;45.466;11.066;2022-12-20T16:47:19;8.40;99.90
23347;DHT22;36852;45.466;11.066;2022-12-20T16:49:47;8.40;99.90
23347;DHT22;36852;45.466;11.066;2022-12-20T16:52:17;8.50;99.90
23347;DHT22;36852;45.466;11.066;2022-12-20T16:57:26;8.50;99.90
23347;DHT22;36852;45.466;11.066;2022-12-20T17:00:04;8.50;99.90
23347;DHT22;36852;45.466;11.066;2022-12-20T17:02:33;8.50;99.90
23347;DHT22;36852;45.466;11.066;2022-12-20T17:05:01;8.50;99.90
23347;DHT22;36852;45.466;11.066;2022-12-20T17:07:30;8.40;99.90
23347;DHT22;36852;45.466;11.066;2022-12-20T17:10:01;8.40;99.90
23347;DHT22;36852;45.466;11.066;2022-12-20T17:12:40;8.40;99.90
23347;DHT22;36852;45.466;11.066;2022-12-20T17:15:26;8.40;99.90
23347;DHT22;36852;45.466;11.066;2022-12-20T17:17:54;8.40;99.90
23347;DHT22;36852;45.466;11.066;2022-12-20T17:20:23;8.40;99.90
23347;DHT22;36852;45.466;11.066;2022-12-20T17:22:54;8.40;99.90
23347;DHT22;36852;45.466;11.066;2022-12-20T17:25:31;8.30;99.90
23347;DHT22;36852;45.466;11.066;2022-12-20T17:28:04;8.30;99.90
23347;DHT22;36852;45.466;11.066;2022-12-20T17:30:32;8.30;99.90
23347;DHT22;36852;45.466;11.066;2022-12-20T17:33:00;8.30;99.90
23347;DHT22;36852;45.466;11.066;2022-12-20T17:35:30;8.30;99.90
23347;DHT22;36852;45.466;11.066;2022-12-20T17:37:59;8.30;99.90
23347;DHT22;36852;45.466;11.066;2022-12-20T17:40:28;8.30;99.90
23347;DHT22;36852;45.466;11.066;2022-12-20T17:42:56;8.30;99.90
23347;DHT22;36852;45.466;11.066;2022-12-20T17:45:29;8.30;99.90
23347;DHT22;36852;45.466;11.066;2022-12-20T17:50:41;8.40;99.90
23347;DHT22;36852;45.466;11.066;2022-12-20T17:53:13;8.40;99.90
23347;DHT22;36852;45.466;11.066;2022-12-20T17:55:40;8.40;99.90
23347;DHT22;36852;45.466;11.066;2022-12-20T17:58:09;8.40;99.90
23347;DHT22;36852;45.466;11.066;2022-12-20T18:00:47;8.40;99.90
23347;DHT22;36852;45.466;11.066;2022-12-20T18:03:15;8.40;99.90
23347;DHT22;36852;45.466;11.066;2022-12-20T18:05:45;8.40;99.90
23347;DHT22;36852;45.466;11.066;2022-12-20T18:08:17;8.40;99.90
23347;DHT22;36852;45.466;11.066;2022-12-20T18:10:45;8.40;99.90
23347;DHT22;36852;45.466;11.066;2022-12-20T18:13:14;8.40;99.90
23347;DHT22;36852;45.466;11.066;2022-12-20T18:15:42;8.40;99.90
23347;DHT22;36852;45.466;11.066;2022-12-20T18:18:10;8.30;99.90
23347;DHT22;36852;45.466;11.066;2022-12-20T18:20:38;8.30;99.90
23347;DHT22;36852;45.466;11.066;2022-12-20T18:23:06;8.30;99.90
23347;DHT22;36852;45.466;11.066;2022-12-20T18:26:30;8.40;99.90
23347;DHT22;36852;45.466;11.066;2022-12-20T18:28:33;8.40;99.90
23347;DHT22;36852;45.466;11.066;2022-12-20T18:31:04;8.40;99.90
23347;DHT22;36852;45.466;11.066;2022-12-20T18:33:34;8.40;99.90
23347;DHT22;36852;45.466;11.066;2022-12-20T18:36:07;8.50;99.90
23347;DHT22;36852;45.466;11.066;2022-12-20T18:38:45;8.40;99.90
23347;DHT22;36852;45.466;11.066;2022-12-20T18:41:16;8.50;99.90
23347;DHT22;36852;45.466;11.066;2022-12-20T18:43:45;8.50;99.90
23347;DHT22;36852;45.466;11.066;2022-12-20T18:46:16;8.50;99.90
23347;DHT22;36852;45.466;11.066;2022-12-20T18:48:45;8.50;99.90